sensor_id;sensor_type;location;lat;lon;timestamp;P1;durP1;ratioP1;P2;durP2;ratioP2
23416;SDS011;11881;42.432;25.632;2023-11-19T00:00:27;0.20;;;0.20;;
23416;SDS011;11881;42.432;25.632;2023-11-19T00:02:53;0.20;;;0.20;;
23416;SDS011;11881;42.432;25.632;2023-11-19T00:05:18;0.77;;;0.50;;
23416;SDS011;11881;42.432;25.632;2023-11-19T00:07:44;0.20;;;0.20;;
23416;SDS011;11881;42.432;25.632;2023-11-19T00:10:10;0.30;;;0.30;;
23416;SDS011;11881;42.432;25.632;2023-11-19T00:12:43;0.20;;;0.20;;
23416;SDS011;11881;42.432;25.632;2023-11-19T00:15:10;0.30;;;0.30;;
23416;SDS011;11881;42.432;25.632;2023-11-19T00:17:42;0.20;;;0.20;;
23416;SDS011;11881;42.432;25.632;2023-11-19T00:20:16;0.20;;;0.20;;
23416;SDS011;11881;42.432;25.632;2023-11-19T00:22:44;1.17;;;0.30;;
23416;SDS011;11881;42.432;25.632;2023-11-19T00:25:13;1.27;;;0.30;;
23416;SDS011;11881;42.432;25.632;2023-11-19T00:27:38;0.40;;;0.30;;
23416;SDS011;11881;42.432;25.632;2023-11-19T00:30:04;0.20;;;0.20;;
23416;SDS011;11881;42.432;25.632;2023-11-19T00:32:32;0.30;;;0.30;;
23416;SDS011;11881;42.432;25.632;2023-11-19T00:34:58;0.43;;;0.30;;
23416;SDS011;11881;42.432;25.632;2023-11-19T00:37:23;0.40;;;0.30;;
23416;SDS011;11881;42.432;25.632;2023-11-19T00:39:49;0.30;;;0.30;;
23416;SDS011;11881;42.432;25.632;2023-11-19T00:42:14;0.27;;;0.20;;
23416;SDS011;11881;42.432;25.632;2023-11-19T00:44:39;0.20;;;0.20;;
23416;SDS011;11881;42.432;25.632;2023-11-19T00:47:06;1.17;;;0.20;;
23416;SDS011;11881;42.432;25.632;2023-11-19T00:49:31;0.30;;;0.30;;
23416;SDS011;11881;42.432;25.632;2023-11-19T00:52:00;0.20;;;0.20;;
23416;SDS011;11881;42.432;25.632;2023-11-19T00:54:27;0.27;;;0.27;;
23416;SDS011;11881;42.432;25.632;2023-11-19T00:56:52;0.60;;;0.30;;
23416;SDS011;11881;42.432;25.632;2023-11-19T00:59:18;0.50;;;0.20;;
23416;SDS011;11881;42.432;25.632;2023-11-19T01:01:44;0.20;;;0.20;;
23416;SDS011;11881;42.432;25.632;2023-11-19T01:04:10;0.30;;;0.30;;
23416;SDS011;11881;42.432;25.632;2023-11-19T01:06:35;0.20;;;0.20;;
23416;SDS011;11881;42.432;25.632;2023-11-19T01:09:01;0.30;;;0.30;;
23416;SDS011;11881;42.432;25.632;2023-11-19T01:11:27;0.30;;;0.30;;
23416;SDS011;11881;42.432;25.632;2023-11-19T01:13:53;2.53;;;0.30;;
23416;SDS011;11881;42.432;25.632;2023-11-19T01:16:18;0.30;;;0.30;;
23416;SDS011;11881;42.432;25.632;2023-11-19T01:18:44;0.20;;;0.20;;
23416;SDS011;11881;42.432;25.632;2023-11-19T01:21:12;0.50;;;0.30;;
23416;SDS011;11881;42.432;25.632;2023-11-19T01:23:37;0.23;;;0.20;;
23416;SDS011;11881;42.432;25.632;2023-11-19T01:26:03;0.30;;;0.30;;
23416;SDS011;11881;42.432;25.632;2023-11-19T01:28:30;0.30;;;0.30;;
23416;SDS011;11881;42.432;25.632;2023-11-19T01:30:56;0.20;;;0.20;;
23416;SDS011;11881;42.432;25.632;2023-11-19T01:33:22;0.30;;;0.30;;
23416;SDS011;11881;42.432;25.632;2023-11-19T01:35:47;0.80;;;0.70;;
23416;SDS011;11881;42.432;25.632;2023-11-19T01:38:12;0.30;;;0.30;;
23416;SDS011;11881;42.432;25.632;2023-11-19T01:40:38;1.03;;;0.40;;
23416;SDS011;11881;42.432;25.632;2023-11-19T01:43:03;0.70;;;0.20;;
23416;SDS011;11881;42.432;25.632;2023-11-19T01:45:29;0.20;;;0.20;;
23416;SDS011;11881;42.432;25.632;2023-11-19T01:47:56;0.47;;;0.20;;
23416;SDS011;11881;42.432;25.632;2023-11-19T01:50:23;0.30;;;0.30;;
23416;SDS011;11881;42.432;25.632;2023-11-19T01:52:53;1.80;;;0.30;;
23416;SDS011;11881;42.432;25.632;2023-11-19T01:55:19;1.13;;;0.30;;
23416;SDS011;11881;42.432;25.632;2023-11-19T01:57:46;0.30;;;0.30;;
23416;SDS011;11881;42.432;25.632;2023-11-19T02:00:12;0.20;;;0.20;;
23416;SDS011;11881;42.432;25.632;2023-11-19T02:02:39;0.30;;;0.30;;
23416;SDS011;11881;42.432;25.632;2023-11-19T02:05:06;0.30;;;0.30;;
23416;SDS011;11881;42.432;25.632;2023-11-19T02:07:32;0.30;;;0.30;;
23416;SDS011;11881;42.432;25.632;2023-11-19T02:09:57;0.50;;;0.40;;
23416;SDS011;11881;42.432;25.632;2023-11-19T02:12:25;0.50;;;0.30;;
23416;SDS011;11881;42.432;25.632;2023-11-19T02:14:53;0.30;;;0.30;;
23416;SDS011;11881;42.432;25.632;2023-11-19T02:17:29;0.40;;;0.40;;
23416;SDS011;11881;42.432;25.632;2023-11-19T02:19:59;0.30;;;0.30;;
23416;SDS011;11881;42.432;25.632;2023-11-19T02:22:25;0.40;;;0.30;;
23416;SDS011;11881;42.432;25.632;2023-11-19T02:24:55;0.40;;;0.40;;
23416;SDS011;11881;42.432;25.632;2023-11-19T02:30:24;0.50;;;0.40;;
23416;SDS011;11881;42.432;25.632;2023-11-19T02:32:54;1.77;;;0.50;;
23416;SDS011;11881;42.432;25.632;2023-11-19T02:35:27;0.40;;;0.40;;
23416;SDS011;11881;42.432;25.632;2023-11-19T02:37:55;0.33;;;0.33;;
23416;SDS011;11881;42.432;25.632;2023-11-19T02:40:21;0.40;;;0.40;;
23416;SDS011;11881;42.432;25.632;2023-11-19T02:42:49;0.40;;;0.40;;
23416;SDS011;11881;42.432;25.632;2023-11-19T02:45:14;0.40;;;0.40;;
23416;SDS011;11881;42.432;25.632;2023-11-19T02:47:40;0.60;;;0.40;;
23416;SDS011;11881;42.432;25.632;2023-11-19T02:50:12;0.40;;;0.40;;
23416;SDS011;11881;42.432;25.632;2023-11-19T02:52:41;0.47;;;0.40;;
23416;SDS011;11881;42.432;25.632;2023-11-19T02:55:07;1.77;;;0.40;;
23416;SDS011;11881;42.432;25.632;2023-11-19T02:57:35;0.40;;;0.40;;
23416;SDS011;11881;42.432;25.632;2023-11-19T03:00:01;0.67;;;0.40;;
23416;SDS011;11881;42.432;25.632;2023-11-19T03:02:38;0.40;;;0.40;;
23416;SDS011;11881;42.432;25.632;2023-11-19T03:05:10;0.40;;;0.40;;
23416;SDS011;11881;42.432;25.632;2023-11-19T03:07:37;0.80;;;0.50;;
23416;SDS011;11881;42.432;25.632;2023-11-19T03:10:02;1.77;;;0.40;;
23416;SDS011;11881;42.432;25.632;2023-11-19T03:12:30;0.70;;;0.70;;
23416;SDS011;11881;42.432;25.632;2023-11-19T03:14:56;0.50;;;0.50;;
23416;SDS011;11881;42.432;25.632;2023-11-19T03:17:21;2.40;;;0.50;;
23416;SDS011;11881;42.432;25.632;2023-11-19T03:19:47;0.50;;;0.50;;
23416;SDS011;11881;42.432;25.632;2023-11-19T03:22:13;0.50;;;0.43;;
23416;SDS011;11881;42.432;25.632;2023-11-19T03:24:39;0.47;;;0.43;;
23416;SDS011;11881;42.432;25.632;2023-11-19T03:27:05;0.50;;;0.40;;
23416;SDS011;11881;42.432;25.632;2023-11-19T03:29:30;1.43;;;0.50;;
23416;SDS011;11881;42.432;25.632;2023-11-19T03:31:55;3.70;;;0.50;;
23416;SDS011;11881;42.432;25.632;2023-11-19T03:34:21;0.50;;;0.50;;
23416;SDS011;11881;42.432;25.632;2023-11-19T03:36:47;0.50;;;0.50;;
23416;SDS011;11881;42.432;25.632;2023-11-19T03:39:12;0.50;;;0.50;;
23416;SDS011;11881;42.432;25.632;2023-11-19T03:41:37;1.93;;;0.50;;
23416;SDS011;11881;42.432;25.632;2023-11-19T03:44:03;0.60;;;0.60;;
23416;SDS011;11881;42.432;25.632;2023-11-19T03:46:28;0.50;;;0.50;;
23416;SDS011;11881;42.432;25.632;2023-11-19T03:48:55;0.63;;;0.63;;
23416;SDS011;11881;42.432;25.632;2023-11-19T03:51:20;0.60;;;0.60;;
23416;SDS011;11881;42.432;25.632;2023-11-19T03:53:46;0.50;;;0.50;;
23416;SDS011;11881;42.432;25.632;2023-11-19T03:56:11;0.87;;;0.60;;
23416;SDS011;11881;42.432;25.632;2023-11-19T03:58:38;0.50;;;0.50;;
23416;SDS011;11881;42.432;25.632;2023-11-19T04:01:06;0.60;;;0.50;;
23416;SDS011;11881;42.432;25.632;2023-11-19T04:03:36;1.90;;;0.50;;
23416;SDS011;11881;42.432;25.632;2023-11-19T04:06:02;0.40;;;0.40;;
23416;SDS011;11881;42.432;25.632;2023-11-19T04:08:27;0.73;;;0.50;;
23416;SDS011;11881;42.432;25.632;2023-11-19T04:10:53;2.53;;;0.50;;
23416;SDS011;11881;42.432;25.632;2023-11-19T04:13:18;0.50;;;0.50;;
23416;SDS011;11881;42.432;25.632;2023-11-19T04:15:45;0.73;;;0.70;;
23416;SDS011;11881;42.432;25.632;2023-11-19T04:18:10;0.60;;;0.60;;
23416;SDS011;11881;42.432;25.632;2023-11-19T04:20:36;2.10;;;0.67;;
23416;SDS011;11881;42.432;25.632;2023-11-19T04:23:01;0.97;;;0.50;;
23416;SDS011;11881;42.432;25.632;2023-11-19T04:25:27;0.50;;;0.50;;
23416;SDS011;11881;42.432;25.632;2023-11-19T04:27:52;0.63;;;0.60;;
23416;SDS011;11881;42.432;25.632;2023-11-19T04:30:18;1.87;;;0.63;;
23416;SDS011;11881;42.432;25.632;2023-11-19T04:32:44;1.00;;;0.60;;
23416;SDS011;11881;42.432;25.632;2023-11-19T04:35:09;0.97;;;0.47;;
23416;SDS011;11881;42.432;25.632;2023-11-19T04:37:35;1.67;;;0.50;;
23416;SDS011;11881;42.432;25.632;2023-11-19T04:40:01;0.60;;;0.60;;
23416;SDS011;11881;42.432;25.632;2023-11-19T04:42:27;0.90;;;0.60;;
23416;SDS011;11881;42.432;25.632;2023-11-19T04:44:53;0.60;;;0.60;;
23416;SDS011;11881;42.432;25.632;2023-11-19T04:47:18;0.57;;;0.57;;
23416;SDS011;11881;42.432;25.632;2023-11-19T04:49:43;0.60;;;0.60;;
23416;SDS011;11881;42.432;25.632;2023-11-19T04:52:09;0.50;;;0.50;;
23416;SDS011;11881;42.432;25.632;2023-11-19T04:54:34;0.77;;;0.60;;
23416;SDS011;11881;42.432;25.632;2023-11-19T04:57:00;0.60;;;0.60;;
23416;SDS011;11881;42.432;25.632;2023-11-19T04:59:25;0.70;;;0.63;;
23416;SDS011;11881;42.432;25.632;2023-11-19T05:01:52;0.67;;;0.67;;
23416;SDS011;11881;42.432;25.632;2023-11-19T05:04:18;0.50;;;0.50;;
23416;SDS011;11881;42.432;25.632;2023-11-19T05:06:44;1.93;;;0.60;;
23416;SDS011;11881;42.432;25.632;2023-11-19T05:09:09;3.80;;;0.70;;
23416;SDS011;11881;42.432;25.632;2023-11-19T05:11:37;0.93;;;0.60;;
23416;SDS011;11881;42.432;25.632;2023-11-19T05:14:04;0.80;;;0.80;;
23416;SDS011;11881;42.432;25.632;2023-11-19T05:16:30;0.60;;;0.60;;
23416;SDS011;11881;42.432;25.632;2023-11-19T05:18:56;0.70;;;0.70;;
23416;SDS011;11881;42.432;25.632;2023-11-19T05:21:21;1.90;;;0.90;;
23416;SDS011;11881;42.432;25.632;2023-11-19T05:23:47;2.43;;;0.70;;
23416;SDS011;11881;42.432;25.632;2023-11-19T05:26:19;2.27;;;0.63;;
23416;SDS011;11881;42.432;25.632;2023-11-19T05:28:46;2.03;;;0.70;;
23416;SDS011;11881;42.432;25.632;2023-11-19T05:31:12;1.57;;;0.80;;
23416;SDS011;11881;42.432;25.632;2023-11-19T05:33:37;1.43;;;0.70;;
23416;SDS011;11881;42.432;25.632;2023-11-19T05:36:03;0.67;;;0.67;;
23416;SDS011;11881;42.432;25.632;2023-11-19T05:38:30;0.83;;;0.70;;
23416;SDS011;11881;42.432;25.632;2023-11-19T05:40:55;0.93;;;0.80;;
23416;SDS011;11881;42.432;25.632;2023-11-19T05:43:21;1.13;;;0.60;;
23416;SDS011;11881;42.432;25.632;2023-11-19T05:45:47;1.30;;;0.80;;
23416;SDS011;11881;42.432;25.632;2023-11-19T05:48:13;2.10;;;0.80;;
23416;SDS011;11881;42.432;25.632;2023-11-19T05:50:38;1.43;;;1.30;;
23416;SDS011;11881;42.432;25.632;2023-11-19T05:53:04;3.57;;;0.90;;
23416;SDS011;11881;42.432;25.632;2023-11-19T05:55:38;1.17;;;0.70;;
23416;SDS011;11881;42.432;25.632;2023-11-19T05:58:11;1.40;;;0.90;;
23416;SDS011;11881;42.432;25.632;2023-11-19T06:00:40;2.53;;;0.80;;
23416;SDS011;11881;42.432;25.632;2023-11-19T06:03:08;1.23;;;0.83;;
23416;SDS011;11881;42.432;25.632;2023-11-19T06:05:34;0.80;;;0.80;;
23416;SDS011;11881;42.432;25.632;2023-11-19T06:07:59;4.50;;;1.00;;
23416;SDS011;11881;42.432;25.632;2023-11-19T06:10:25;2.80;;;0.90;;
23416;SDS011;11881;42.432;25.632;2023-11-19T06:12:59;0.83;;;0.60;;
23416;SDS011;11881;42.432;25.632;2023-11-19T06:15:28;1.87;;;0.80;;
23416;SDS011;11881;42.432;25.632;2023-11-19T06:17:53;1.10;;;0.90;;
23416;SDS011;11881;42.432;25.632;2023-11-19T06:20:20;0.80;;;0.80;;
23416;SDS011;11881;42.432;25.632;2023-11-19T06:22:46;0.90;;;0.70;;
23416;SDS011;11881;42.432;25.632;2023-11-19T06:25:12;1.37;;;0.90;;
23416;SDS011;11881;42.432;25.632;2023-11-19T06:27:40;0.67;;;0.60;;
23416;SDS011;11881;42.432;25.632;2023-11-19T06:30:06;0.93;;;0.80;;
23416;SDS011;11881;42.432;25.632;2023-11-19T06:32:32;2.90;;;0.83;;
23416;SDS011;11881;42.432;25.632;2023-11-19T06:34:58;0.80;;;0.73;;
23416;SDS011;11881;42.432;25.632;2023-11-19T06:37:23;1.33;;;0.73;;
23416;SDS011;11881;42.432;25.632;2023-11-19T06:39:49;2.40;;;0.70;;
23416;SDS011;11881;42.432;25.632;2023-11-19T06:42:14;0.70;;;0.70;;
23416;SDS011;11881;42.432;25.632;2023-11-19T06:44:39;1.20;;;0.90;;
23416;SDS011;11881;42.432;25.632;2023-11-19T06:47:05;1.23;;;0.87;;
23416;SDS011;11881;42.432;25.632;2023-11-19T06:49:31;1.90;;;0.90;;
23416;SDS011;11881;42.432;25.632;2023-11-19T06:51:57;0.90;;;0.73;;
23416;SDS011;11881;42.432;25.632;2023-11-19T06:54:22;1.80;;;0.80;;
23416;SDS011;11881;42.432;25.632;2023-11-19T06:56:48;2.10;;;0.70;;
23416;SDS011;11881;42.432;25.632;2023-11-19T06:59:14;1.63;;;0.60;;
23416;SDS011;11881;42.432;25.632;2023-11-19T07:01:39;1.77;;;0.67;;
23416;SDS011;11881;42.432;25.632;2023-11-19T07:04:07;1.17;;;0.80;;
23416;SDS011;11881;42.432;25.632;2023-11-19T07:06:35;0.80;;;0.80;;
23416;SDS011;11881;42.432;25.632;2023-11-19T07:09:01;1.03;;;0.90;;
23416;SDS011;11881;42.432;25.632;2023-11-19T07:11:39;1.03;;;0.93;;
23416;SDS011;11881;42.432;25.632;2023-11-19T07:14:05;0.83;;;0.73;;
23416;SDS011;11881;42.432;25.632;2023-11-19T07:16:32;3.13;;;0.80;;
23416;SDS011;11881;42.432;25.632;2023-11-19T07:18:59;1.20;;;1.00;;
23416;SDS011;11881;42.432;25.632;2023-11-19T07:21:25;1.90;;;0.80;;
23416;SDS011;11881;42.432;25.632;2023-11-19T07:23:51;2.10;;;1.03;;
23416;SDS011;11881;42.432;25.632;2023-11-19T07:26:17;3.13;;;0.90;;
23416;SDS011;11881;42.432;25.632;2023-11-19T07:28:42;2.30;;;0.97;;
23416;SDS011;11881;42.432;25.632;2023-11-19T07:31:10;3.30;;;1.03;;
23416;SDS011;11881;42.432;25.632;2023-11-19T07:33:36;2.10;;;0.80;;
23416;SDS011;11881;42.432;25.632;2023-11-19T07:36:01;0.93;;;0.87;;
23416;SDS011;11881;42.432;25.632;2023-11-19T07:38:27;1.47;;;0.90;;
23416;SDS011;11881;42.432;25.632;2023-11-19T07:40:52;1.10;;;1.00;;
23416;SDS011;11881;42.432;25.632;2023-11-19T07:43:18;2.03;;;0.80;;
23416;SDS011;11881;42.432;25.632;2023-11-19T07:45:43;6.53;;;1.00;;
23416;SDS011;11881;42.432;25.632;2023-11-19T07:48:10;4.00;;;0.87;;
23416;SDS011;11881;42.432;25.632;2023-11-19T07:50:38;0.83;;;0.80;;
23416;SDS011;11881;42.432;25.632;2023-11-19T07:53:03;1.17;;;1.00;;
23416;SDS011;11881;42.432;25.632;2023-11-19T07:55:29;2.70;;;0.90;;
23416;SDS011;11881;42.432;25.632;2023-11-19T07:57:55;2.47;;;0.70;;
23416;SDS011;11881;42.432;25.632;2023-11-19T08:00:21;4.20;;;0.87;;
23416;SDS011;11881;42.432;25.632;2023-11-19T08:02:46;1.03;;;0.87;;
23416;SDS011;11881;42.432;25.632;2023-11-19T08:05:12;1.17;;;1.07;;
23416;SDS011;11881;42.432;25.632;2023-11-19T08:07:37;0.70;;;0.70;;
23416;SDS011;11881;42.432;25.632;2023-11-19T08:10:04;0.97;;;0.77;;
23416;SDS011;11881;42.432;25.632;2023-11-19T08:12:30;1.20;;;1.07;;
23416;SDS011;11881;42.432;25.632;2023-11-19T08:14:56;1.23;;;0.90;;
23416;SDS011;11881;42.432;25.632;2023-11-19T08:17:23;1.60;;;0.70;;
23416;SDS011;11881;42.432;25.632;2023-11-19T08:19:49;0.93;;;0.60;;
23416;SDS011;11881;42.432;25.632;2023-11-19T08:22:15;1.10;;;0.87;;
23416;SDS011;11881;42.432;25.632;2023-11-19T08:24:41;0.97;;;0.87;;
23416;SDS011;11881;42.432;25.632;2023-11-19T08:27:08;1.47;;;0.80;;
23416;SDS011;11881;42.432;25.632;2023-11-19T08:29:33;0.93;;;0.90;;
23416;SDS011;11881;42.432;25.632;2023-11-19T08:32:00;1.80;;;0.80;;
23416;SDS011;11881;42.432;25.632;2023-11-19T08:34:27;1.93;;;0.90;;
23416;SDS011;11881;42.432;25.632;2023-11-19T08:36:52;0.97;;;0.90;;
23416;SDS011;11881;42.432;25.632;2023-11-19T08:39:21;1.20;;;0.90;;
23416;SDS011;11881;42.432;25.632;2023-11-19T08:41:47;0.80;;;0.60;;
23416;SDS011;11881;42.432;25.632;2023-11-19T08:44:13;0.67;;;0.67;;
23416;SDS011;11881;42.432;25.632;2023-11-19T08:46:39;2.03;;;0.80;;
23416;SDS011;11881;42.432;25.632;2023-11-19T08:49:10;2.73;;;0.93;;
23416;SDS011;11881;42.432;25.632;2023-11-19T08:51:36;0.80;;;0.80;;
23416;SDS011;11881;42.432;25.632;2023-11-19T08:54:01;2.00;;;0.70;;
23416;SDS011;11881;42.432;25.632;2023-11-19T08:56:27;1.37;;;1.03;;
23416;SDS011;11881;42.432;25.632;2023-11-19T08:58:57;1.77;;;0.70;;
23416;SDS011;11881;42.432;25.632;2023-11-19T09:01:22;2.70;;;0.70;;
23416;SDS011;11881;42.432;25.632;2023-11-19T09:03:47;0.90;;;0.80;;
23416;SDS011;11881;42.432;25.632;2023-11-19T09:06:13;1.97;;;0.80;;
23416;SDS011;11881;42.432;25.632;2023-11-19T09:08:38;0.80;;;0.80;;
23416;SDS011;11881;42.432;25.632;2023-11-19T09:11:06;0.80;;;0.80;;
23416;SDS011;11881;42.432;25.632;2023-11-19T09:13:32;1.63;;;0.73;;
23416;SDS011;11881;42.432;25.632;2023-11-19T09:15:58;1.53;;;1.07;;
23416;SDS011;11881;42.432;25.632;2023-11-19T09:18:28;1.17;;;0.60;;
23416;SDS011;11881;42.432;25.632;2023-11-19T09:20:54;0.83;;;0.70;;
23416;SDS011;11881;42.432;25.632;2023-11-19T09:23:19;1.20;;;1.10;;
23416;SDS011;11881;42.432;25.632;2023-11-19T09:25:45;1.30;;;0.80;;
23416;SDS011;11881;42.432;25.632;2023-11-19T09:28:10;1.00;;;0.70;;
23416;SDS011;11881;42.432;25.632;2023-11-19T09:30:36;1.63;;;0.77;;
23416;SDS011;11881;42.432;25.632;2023-11-19T09:33:01;1.77;;;0.80;;
23416;SDS011;11881;42.432;25.632;2023-11-19T09:35:27;0.97;;;0.87;;
23416;SDS011;11881;42.432;25.632;2023-11-19T09:37:52;1.20;;;0.97;;
23416;SDS011;11881;42.432;25.632;2023-11-19T09:40:18;1.97;;;1.27;;
23416;SDS011;11881;42.432;25.632;2023-11-19T09:42:44;4.17;;;2.20;;
23416;SDS011;11881;42.432;25.632;2023-11-19T09:45:14;1.83;;;1.00;;
23416;SDS011;11881;42.432;25.632;2023-11-19T09:47:42;1.13;;;1.07;;
23416;SDS011;11881;42.432;25.632;2023-11-19T09:50:10;1.30;;;0.90;;
23416;SDS011;11881;42.432;25.632;2023-11-19T09:52:43;1.90;;;1.43;;
23416;SDS011;11881;42.432;25.632;2023-11-19T09:55:10;2.30;;;1.50;;
23416;SDS011;11881;42.432;25.632;2023-11-19T09:57:35;4.10;;;2.77;;
23416;SDS011;11881;42.432;25.632;2023-11-19T10:00:03;1.00;;;0.90;;
23416;SDS011;11881;42.432;25.632;2023-11-19T10:02:33;9.80;;;7.10;;
23416;SDS011;11881;42.432;25.632;2023-11-19T10:05:01;1.97;;;1.30;;
23416;SDS011;11881;42.432;25.632;2023-11-19T10:07:31;1.53;;;1.10;;
23416;SDS011;11881;42.432;25.632;2023-11-19T10:10:01;1.53;;;1.27;;
23416;SDS011;11881;42.432;25.632;2023-11-19T10:12:29;21.60;;;12.10;;
23416;SDS011;11881;42.432;25.632;2023-11-19T10:14:57;5.00;;;2.53;;
23416;SDS011;11881;42.432;25.632;2023-11-19T10:17:42;10.03;;;5.10;;
23416;SDS011;11881;42.432;25.632;2023-11-19T10:20:08;3.27;;;1.20;;
23416;SDS011;11881;42.432;25.632;2023-11-19T10:22:36;1.60;;;1.10;;
23416;SDS011;11881;42.432;25.632;2023-11-19T10:25:02;23.70;;;10.57;;
23416;SDS011;11881;42.432;25.632;2023-11-19T10:27:28;76.83;;;32.70;;
23416;SDS011;11881;42.432;25.632;2023-11-19T10:29:53;25.23;;;10.73;;
23416;SDS011;11881;42.432;25.632;2023-11-19T10:32:19;11.07;;;5.33;;
23416;SDS011;11881;42.432;25.632;2023-11-19T10:34:44;18.03;;;7.33;;
23416;SDS011;11881;42.432;25.632;2023-11-19T10:37:26;22.00;;;10.47;;
23416;SDS011;11881;42.432;25.632;2023-11-19T10:39:53;51.73;;;18.40;;
23416;SDS011;11881;42.432;25.632;2023-11-19T10:42:22;121.37;;;28.10;;
23416;SDS011;11881;42.432;25.632;2023-11-19T10:44:47;285.47;;;70.37;;
23416;SDS011;11881;42.432;25.632;2023-11-19T10:47:15;111.47;;;18.30;;
23416;SDS011;11881;42.432;25.632;2023-11-19T10:49:44;61.53;;;22.00;;
23416;SDS011;11881;42.432;25.632;2023-11-19T10:52:15;12.80;;;2.77;;
23416;SDS011;11881;42.432;25.632;2023-11-19T10:54:44;1.60;;;1.03;;
23416;SDS011;11881;42.432;25.632;2023-11-19T10:57:19;4.37;;;1.27;;
23416;SDS011;11881;42.432;25.632;2023-11-19T10:59:46;2.23;;;1.07;;
23416;SDS011;11881;42.432;25.632;2023-11-19T11:02:12;1.97;;;1.27;;
23416;SDS011;11881;42.432;25.632;2023-11-19T11:04:44;1.30;;;0.90;;
23416;SDS011;11881;42.432;25.632;2023-11-19T11:07:12;0.97;;;0.83;;
23416;SDS011;11881;42.432;25.632;2023-11-19T11:09:41;2.57;;;0.90;;
23416;SDS011;11881;42.432;25.632;2023-11-19T11:12:06;1.90;;;1.70;;
23416;SDS011;11881;42.432;25.632;2023-11-19T11:14:35;1.33;;;0.80;;
23416;SDS011;11881;42.432;25.632;2023-11-19T11:17:05;2.30;;;0.73;;
23416;SDS011;11881;42.432;25.632;2023-11-19T11:19:33;2.93;;;0.97;;
23416;SDS011;11881;42.432;25.632;2023-11-19T11:21:59;0.60;;;0.60;;
23416;SDS011;11881;42.432;25.632;2023-11-19T11:38:37;2.00;;;0.93;;
23416;SDS011;11881;42.432;25.632;2023-11-19T11:41:16;5.77;;;1.40;;
23416;SDS011;11881;42.432;25.632;2023-11-19T11:43:47;12.07;;;1.57;;
23416;SDS011;11881;42.432;25.632;2023-11-19T11:49:00;1.80;;;1.33;;
23416;SDS011;11881;42.432;25.632;2023-11-19T11:52:27;1.10;;;1.00;;
23416;SDS011;11881;42.432;25.632;2023-11-19T11:57:08;2.70;;;1.50;;
23416;SDS011;11881;42.432;25.632;2023-11-19T11:59:37;1.90;;;0.97;;
23416;SDS011;11881;42.432;25.632;2023-11-19T12:02:08;1.90;;;1.60;;
23416;SDS011;11881;42.432;25.632;2023-11-19T12:04:35;0.93;;;0.93;;
23416;SDS011;11881;42.432;25.632;2023-11-19T12:07:14;4.67;;;2.40;;
23416;SDS011;11881;42.432;25.632;2023-11-19T12:09:42;3.17;;;2.57;;
23416;SDS011;11881;42.432;25.632;2023-11-19T12:20:02;2.10;;;0.70;;
23416;SDS011;11881;42.432;25.632;2023-11-19T12:22:43;1.20;;;0.73;;
23416;SDS011;11881;42.432;25.632;2023-11-19T12:25:10;1.00;;;0.87;;
23416;SDS011;11881;42.432;25.632;2023-11-19T12:27:39;0.80;;;0.80;;
23416;SDS011;11881;42.432;25.632;2023-11-19T12:30:06;0.80;;;0.77;;
23416;SDS011;11881;42.432;25.632;2023-11-19T12:32:43;0.70;;;0.70;;
23416;SDS011;11881;42.432;25.632;2023-11-19T12:35:10;0.90;;;0.77;;
23416;SDS011;11881;42.432;25.632;2023-11-19T12:40:16;0.70;;;0.70;;
23416;SDS011;11881;42.432;25.632;2023-11-19T12:42:43;0.70;;;0.70;;
23416;SDS011;11881;42.432;25.632;2023-11-19T12:45:09;1.40;;;0.70;;
23416;SDS011;11881;42.432;25.632;2023-11-19T12:47:36;1.20;;;0.80;;
23416;SDS011;11881;42.432;25.632;2023-11-19T12:50:02;2.00;;;0.80;;
23416;SDS011;11881;42.432;25.632;2023-11-19T12:52:29;0.70;;;0.70;;
23416;SDS011;11881;42.432;25.632;2023-11-19T12:54:55;0.70;;;0.70;;
23416;SDS011;11881;42.432;25.632;2023-11-19T12:57:20;1.03;;;0.70;;
23416;SDS011;11881;42.432;25.632;2023-11-19T12:59:55;0.67;;;0.67;;
23416;SDS011;11881;42.432;25.632;2023-11-19T13:02:41;2.60;;;0.90;;
23416;SDS011;11881;42.432;25.632;2023-11-19T13:05:21;0.90;;;0.70;;
23416;SDS011;11881;42.432;25.632;2023-11-19T13:08:02;0.70;;;0.70;;
23416;SDS011;11881;42.432;25.632;2023-11-19T13:10:32;1.20;;;1.10;;
23416;SDS011;11881;42.432;25.632;2023-11-19T13:13:08;5.50;;;0.90;;
23416;SDS011;11881;42.432;25.632;2023-11-19T13:15:34;2.17;;;0.90;;
23416;SDS011;11881;42.432;25.632;2023-11-19T13:18:00;0.70;;;0.70;;
23416;SDS011;11881;42.432;25.632;2023-11-19T13:20:27;2.27;;;0.90;;
23416;SDS011;11881;42.432;25.632;2023-11-19T13:22:57;1.70;;;0.70;;
23416;SDS011;11881;42.432;25.632;2023-11-19T13:25:24;2.23;;;1.00;;
23416;SDS011;11881;42.432;25.632;2023-11-19T13:27:49;1.10;;;1.00;;
23416;SDS011;11881;42.432;25.632;2023-11-19T13:30:15;0.80;;;0.80;;
23416;SDS011;11881;42.432;25.632;2023-11-19T13:32:41;0.87;;;0.70;;
23416;SDS011;11881;42.432;25.632;2023-11-19T13:35:07;0.90;;;0.90;;
23416;SDS011;11881;42.432;25.632;2023-11-19T13:37:34;0.90;;;0.80;;
23416;SDS011;11881;42.432;25.632;2023-11-19T13:39:59;1.00;;;1.00;;
23416;SDS011;11881;42.432;25.632;2023-11-19T13:42:25;2.80;;;0.70;;
23416;SDS011;11881;42.432;25.632;2023-11-19T13:44:50;1.27;;;0.90;;
23416;SDS011;11881;42.432;25.632;2023-11-19T13:47:16;1.20;;;1.10;;
23416;SDS011;11881;42.432;25.632;2023-11-19T13:49:41;1.43;;;1.20;;
23416;SDS011;11881;42.432;25.632;2023-11-19T13:52:07;2.47;;;1.87;;
23416;SDS011;11881;42.432;25.632;2023-11-19T13:54:32;2.83;;;1.17;;
23416;SDS011;11881;42.432;25.632;2023-11-19T13:56:58;1.47;;;1.30;;
23416;SDS011;11881;42.432;25.632;2023-11-19T13:59:23;1.10;;;1.00;;
23416;SDS011;11881;42.432;25.632;2023-11-19T14:01:49;1.43;;;1.13;;
23416;SDS011;11881;42.432;25.632;2023-11-19T14:04:14;1.83;;;1.50;;
23416;SDS011;11881;42.432;25.632;2023-11-19T14:06:40;1.37;;;1.07;;
23416;SDS011;11881;42.432;25.632;2023-11-19T14:09:06;2.40;;;1.47;;
23416;SDS011;11881;42.432;25.632;2023-11-19T14:11:32;2.73;;;1.30;;
23416;SDS011;11881;42.432;25.632;2023-11-19T14:13:58;3.20;;;1.37;;
23416;SDS011;11881;42.432;25.632;2023-11-19T14:16:26;2.30;;;1.40;;
23416;SDS011;11881;42.432;25.632;2023-11-19T14:18:52;3.23;;;1.33;;
23416;SDS011;11881;42.432;25.632;2023-11-19T14:21:18;2.07;;;1.83;;
23416;SDS011;11881;42.432;25.632;2023-11-19T14:23:43;2.43;;;2.07;;
23416;SDS011;11881;42.432;25.632;2023-11-19T14:26:09;2.80;;;2.20;;
23416;SDS011;11881;42.432;25.632;2023-11-19T14:28:35;2.80;;;1.97;;
23416;SDS011;11881;42.432;25.632;2023-11-19T14:31:00;2.77;;;2.23;;
23416;SDS011;11881;42.432;25.632;2023-11-19T14:33:26;6.23;;;3.07;;
23416;SDS011;11881;42.432;25.632;2023-11-19T14:35:51;3.07;;;2.60;;
23416;SDS011;11881;42.432;25.632;2023-11-19T14:38:17;4.63;;;3.27;;
23416;SDS011;11881;42.432;25.632;2023-11-19T14:40:42;5.93;;;3.43;;
23416;SDS011;11881;42.432;25.632;2023-11-19T14:43:08;4.10;;;3.50;;
23416;SDS011;11881;42.432;25.632;2023-11-19T14:45:38;6.70;;;3.80;;
23416;SDS011;11881;42.432;25.632;2023-11-19T14:48:04;5.73;;;4.30;;
23416;SDS011;11881;42.432;25.632;2023-11-19T14:50:31;7.43;;;4.37;;
23416;SDS011;11881;42.432;25.632;2023-11-19T14:52:56;8.87;;;4.40;;
23416;SDS011;11881;42.432;25.632;2023-11-19T14:55:22;7.03;;;4.47;;
23416;SDS011;11881;42.432;25.632;2023-11-19T14:57:47;9.43;;;5.10;;
23416;SDS011;11881;42.432;25.632;2023-11-19T15:00:14;8.57;;;4.90;;
23416;SDS011;11881;42.432;25.632;2023-11-19T15:02:40;7.83;;;3.90;;
23416;SDS011;11881;42.432;25.632;2023-11-19T15:05:06;6.27;;;3.37;;